createdAt,value
2018-09-30T00:01:15.280Z,3.50
2018-09-30T00:03:43.564Z,3.40
2018-09-30T00:06:11.909Z,3.40
2018-09-30T00:08:40.165Z,3.50
2018-09-30T00:11:08.571Z,3.50
2018-09-30T00:13:36.801Z,3.50
2018-09-30T00:16:05.065Z,3.40
2018-09-30T00:18:33.323Z,3.40
2018-09-30T00:21:01.625Z,3.40
2018-09-30T00:23:34.125Z,3.30
2018-09-30T00:26:07.979Z,3.30
2018-09-30T00:28:36.485Z,3.30
2018-09-30T00:31:04.899Z,3.30
2018-09-30T00:33:33.124Z,3.30
2018-09-30T00:36:03.090Z,3.30
2018-09-30T00:38:33.455Z,3.20
2018-09-30T00:41:01.773Z,3.20
2018-09-30T00:43:30.169Z,3.20
2018-09-30T00:45:58.571Z,3.10
2018-09-30T00:48:26.926Z,3.10
2018-09-30T00:50:55.292Z,3.10
2018-09-30T00:53:23.628Z,3.00
2018-09-30T00:55:51.985Z,3.00
2018-09-30T00:58:20.416Z,3.00
2018-09-30T01:00:48.671Z,3.00
2018-09-30T01:03:17.141Z,3.00
2018-09-30T01:05:45.496Z,2.90
2018-09-30T01:08:13.909Z,2.90
2018-09-30T01:10:42.183Z,2.90
2018-09-30T01:13:10.483Z,2.90
2018-09-30T01:15:38.750Z,2.80
2018-09-30T01:18:07.087Z,2.80
2018-09-30T01:20:35.457Z,2.80
2018-09-30T01:23:03.680Z,2.70
2018-09-30T01:25:32.050Z,2.70
2018-09-30T01:28:00.309Z,2.70
2018-09-30T01:30:28.519Z,2.70
2018-09-30T01:32:56.798Z,2.70
2018-09-30T01:35:25.055Z,2.70
2018-09-30T01:37:53.405Z,2.70
2018-09-30T01:40:21.689Z,2.70
2018-09-30T01:42:49.953Z,2.70
2018-09-30T01:45:18.326Z,2.70
2018-09-30T01:47:46.706Z,2.50
2018-09-30T01:50:17.012Z,2.50
2018-09-30T01:52:51.222Z,2.50
2018-09-30T01:55:19.848Z,2.50
2018-09-30T01:57:48.146Z,2.50
2018-09-30T02:00:16.774Z,2.50
2018-09-30T02:02:45.175Z,2.50
2018-09-30T02:05:13.609Z,2.50
2018-09-30T02:07:41.889Z,2.40
2018-09-30T02:10:10.306Z,2.40
2018-09-30T02:12:38.641Z,2.40
2018-09-30T02:15:06.904Z,2.40
2018-09-30T02:17:35.169Z,2.40
2018-09-30T02:20:03.510Z,2.40
2018-09-30T02:22:31.802Z,2.30
2018-09-30T02:25:00.171Z,2.30
2018-09-30T02:27:28.580Z,2.20
2018-09-30T02:29:56.880Z,2.20
2018-09-30T02:32:25.181Z,2.10
2018-09-30T02:34:53.387Z,2.10
2018-09-30T02:37:21.575Z,2.10
2018-09-30T02:39:49.839Z,2.00
2018-09-30T02:42:18.019Z,2.00
2018-09-30T02:44:46.204Z,2.10
2018-09-30T02:47:14.406Z,2.10
2018-09-30T02:49:42.619Z,2.10
2018-09-30T02:52:10.812Z,2.00
2018-09-30T02:54:39.010Z,2.00
2018-09-30T02:57:07.248Z,1.90
2018-09-30T02:59:35.582Z,1.90
2018-09-30T03:02:03.747Z,1.90
2018-09-30T03:04:31.927Z,1.90
2018-09-30T03:07:05.400Z,1.90
2018-09-30T03:09:33.663Z,1.90
2018-09-30T03:12:01.852Z,1.90
2018-09-30T03:14:30.100Z,1.80
2018-09-30T03:16:58.297Z,1.80
2018-09-30T03:19:26.596Z,1.80
2018-09-30T03:21:54.767Z,1.80
2018-09-30T03:24:22.998Z,1.80
2018-09-30T03:26:51.197Z,1.80
2018-09-30T03:29:19.447Z,1.80
2018-09-30T03:31:47.652Z,1.70
2018-09-30T03:34:15.835Z,1.60
2018-09-30T03:36:44.117Z,1.60
2018-09-30T03:39:12.359Z,1.60
2018-09-30T03:41:40.547Z,1.60
2018-09-30T03:44:08.760Z,1.50
2018-09-30T03:46:37.019Z,1.50
2018-09-30T03:49:05.329Z,1.50
2018-09-30T03:51:33.554Z,1.60
2018-09-30T03:54:01.763Z,1.60
2018-09-30T03:56:30.075Z,1.60
2018-09-30T03:58:58.659Z,1.60
2018-09-30T04:01:26.898Z,1.60
2018-09-30T04:03:55.451Z,1.50
2018-09-30T04:06:23.748Z,1.50
2018-09-30T04:08:52.128Z,1.50
2018-09-30T04:11:20.411Z,1.40
2018-09-30T04:13:48.719Z,1.40
2018-09-30T04:16:17.120Z,1.40
2018-09-30T04:18:45.958Z,1.40
2018-09-30T04:21:14.272Z,1.40
2018-09-30T04:23:42.726Z,1.40
2018-09-30T04:26:11.012Z,1.40
2018-09-30T04:28:39.365Z,1.40
2018-09-30T04:31:07.748Z,1.30
2018-09-30T04:33:36.006Z,1.30
2018-09-30T04:36:04.526Z,1.30
2018-09-30T04:38:32.831Z,1.30
2018-09-30T04:41:01.240Z,1.20
2018-09-30T04:43:29.526Z,1.20
2018-09-30T04:45:57.882Z,1.20
2018-09-30T04:48:26.176Z,1.30
2018-09-30T04:50:54.528Z,1.30
2018-09-30T04:53:22.850Z,1.30
2018-09-30T04:55:51.823Z,1.30
2018-09-30T04:58:20.163Z,1.40
2018-09-30T05:00:48.417Z,1.40
2018-09-30T05:03:16.874Z,1.40
2018-09-30T05:05:45.251Z,1.40
2018-09-30T05:08:13.524Z,1.30
2018-09-30T05:10:41.798Z,1.30
2018-09-30T05:13:10.065Z,1.30
2018-09-30T05:15:39.552Z,1.30
2018-09-30T05:18:07.906Z,1.30
2018-09-30T05:20:36.183Z,1.30
2018-09-30T05:23:04.626Z,1.30
2018-09-30T05:25:36.270Z,1.30
2018-09-30T05:28:04.404Z,1.30
2018-09-30T05:30:32.728Z,1.40
2018-09-30T05:33:00.891Z,1.40
2018-09-30T05:35:29.262Z,1.40
2018-09-30T05:37:57.652Z,1.40
2018-09-30T05:40:26.123Z,1.40
2018-09-30T05:42:54.408Z,1.30
2018-09-30T05:45:22.699Z,1.30
2018-09-30T05:47:51.059Z,1.30
2018-09-30T05:50:19.453Z,1.30
2018-09-30T05:52:47.703Z,1.30
2018-09-30T05:55:15.994Z,1.30
2018-09-30T05:57:44.365Z,1.30
2018-09-30T06:00:12.629Z,1.30
2018-09-30T06:02:41.023Z,1.40
2018-09-30T06:05:09.383Z,1.50
2018-09-30T06:07:37.853Z,1.50
2018-09-30T06:10:06.351Z,1.60
2018-09-30T06:12:34.763Z,1.60
2018-09-30T06:15:03.260Z,1.70
2018-09-30T06:17:31.699Z,1.70
2018-09-30T06:20:00.064Z,1.70
2018-09-30T06:22:28.539Z,1.80
2018-09-30T06:24:56.876Z,1.90
2018-09-30T06:27:25.306Z,2.00
2018-09-30T06:29:53.659Z,2.10
2018-09-30T06:32:22.184Z,2.20
2018-09-30T06:34:50.628Z,2.40
2018-09-30T06:37:19.094Z,2.60
2018-09-30T06:39:47.412Z,2.70
2018-09-30T06:42:15.791Z,2.80
2018-09-30T06:44:44.240Z,2.90
2018-09-30T06:47:12.516Z,3.10
2018-09-30T06:49:40.707Z,3.20
2018-09-30T06:52:08.898Z,3.40
2018-09-30T06:54:37.168Z,3.60
2018-09-30T06:57:05.436Z,3.90
2018-09-30T06:59:33.615Z,4.30
2018-09-30T07:02:01.892Z,4.50
2018-09-30T07:04:30.194Z,4.60
2018-09-30T07:06:58.419Z,4.90
2018-09-30T07:09:26.715Z,5.20
2018-09-30T07:11:55.295Z,5.40
2018-09-30T07:14:23.663Z,5.70
2018-09-30T07:16:52.018Z,5.80
2018-09-30T07:19:20.375Z,5.70
2018-09-30T07:21:48.644Z,5.80
2018-09-30T07:24:17.097Z,5.80
2018-09-30T07:26:45.443Z,5.90
2018-09-30T07:29:13.647Z,5.80
2018-09-30T07:31:42.037Z,5.70
2018-09-30T07:34:10.321Z,5.70
2018-09-30T07:36:38.584Z,5.90
2018-09-30T07:39:07.904Z,6.00
2018-09-30T07:41:36.283Z,6.20
2018-09-30T07:44:04.600Z,6.40
2018-09-30T07:46:32.953Z,6.50
2018-09-30T07:49:01.279Z,6.60
2018-09-30T07:51:29.571Z,6.70
2018-09-30T07:53:58.051Z,7.00
2018-09-30T07:56:26.569Z,7.20
2018-09-30T07:58:54.820Z,7.40
2018-09-30T08:01:23.150Z,7.50
2018-09-30T08:03:51.390Z,7.50
2018-09-30T08:06:19.849Z,7.60
2018-09-30T08:08:48.084Z,7.70
2018-09-30T08:11:16.367Z,8.00
2018-09-30T08:13:44.691Z,8.30
2018-09-30T08:16:12.959Z,8.60
2018-09-30T08:18:41.198Z,8.70
2018-09-30T08:21:09.514Z,9.00
2018-09-30T08:23:37.833Z,9.20
2018-09-30T08:26:06.254Z,9.20
2018-09-30T08:28:34.858Z,9.30
2018-09-30T08:31:03.120Z,9.40
2018-09-30T08:33:31.397Z,9.40
2018-09-30T08:36:05.000Z,9.60
2018-09-30T08:38:34.302Z,9.90
2018-09-30T08:41:03.927Z,10.10
2018-09-30T08:43:33.347Z,10.00
2018-09-30T08:46:06.500Z,10.20
2018-09-30T08:48:34.675Z,10.40
2018-09-30T08:51:02.957Z,10.50
2018-09-30T08:53:32.049Z,10.40
2018-09-30T08:56:00.749Z,10.50
2018-09-30T08:58:29.866Z,10.50
2018-09-30T09:00:58.224Z,10.60
2018-09-30T09:03:26.961Z,11.10
2018-09-30T09:05:55.240Z,11.20
2018-09-30T09:08:23.646Z,11.10
2018-09-30T09:10:52.171Z,11.30
2018-09-30T09:13:20.581Z,11.40
2018-09-30T09:15:49.182Z,11.30
2018-09-30T09:18:17.479Z,11.40
2018-09-30T09:20:45.781Z,11.50
2018-09-30T09:23:14.188Z,11.60
2018-09-30T09:25:42.999Z,11.80
2018-09-30T09:28:11.964Z,12.00
2018-09-30T09:30:40.422Z,12.00
2018-09-30T09:33:08.945Z,12.20
2018-09-30T09:35:37.216Z,12.30
2018-09-30T09:38:05.538Z,12.30
2018-09-30T09:40:34.014Z,12.40
2018-09-30T09:43:02.426Z,12.70
2018-09-30T09:45:30.791Z,12.90
2018-09-30T09:47:59.111Z,13.10
2018-09-30T09:50:27.526Z,13.30
2018-09-30T09:52:55.880Z,13.50
2018-09-30T09:55:24.176Z,13.70
2018-09-30T09:57:52.520Z,13.80
2018-09-30T10:00:26.159Z,14.00
2018-09-30T10:02:54.396Z,13.80
2018-09-30T10:05:22.670Z,13.80
2018-09-30T10:07:51.020Z,13.80
2018-09-30T10:10:19.282Z,14.20
2018-09-30T10:12:48.560Z,14.20
2018-09-30T10:15:16.871Z,14.20
2018-09-30T10:22:24.370Z,14.80
2018-09-30T10:24:52.644Z,15.00
2018-09-30T10:27:20.873Z,15.00
2018-09-30T10:29:49.078Z,14.90
2018-09-30T10:32:17.343Z,15.40
2018-09-30T10:34:45.647Z,15.40
2018-09-30T10:37:14.419Z,15.50
2018-09-30T10:39:42.633Z,15.80
2018-09-30T10:42:10.874Z,15.90
2018-09-30T10:44:39.185Z,15.70
2018-09-30T10:47:07.676Z,15.80
2018-09-30T10:49:36.016Z,16.00
2018-09-30T10:52:04.458Z,15.80
2018-09-30T10:54:32.835Z,16.10
2018-09-30T10:57:01.153Z,16.30
2018-09-30T10:59:29.608Z,16.50
2018-09-30T11:01:57.869Z,16.70
2018-09-30T11:04:26.293Z,16.50
2018-09-30T11:06:54.577Z,16.40
2018-09-30T11:09:22.878Z,16.10
2018-09-30T11:11:51.206Z,16.40
2018-09-30T11:14:19.525Z,16.50
2018-09-30T11:16:47.978Z,16.50
2018-09-30T11:19:16.527Z,16.40
2018-09-30T11:21:45.011Z,16.40
2018-09-30T11:24:13.308Z,16.40
2018-09-30T11:26:41.555Z,16.40
2018-09-30T11:29:09.760Z,16.30
2018-09-30T11:31:38.062Z,16.30
2018-09-30T11:34:06.371Z,16.40
2018-09-30T11:36:34.886Z,16.50
2018-09-30T11:39:03.429Z,16.50
2018-09-30T11:41:31.682Z,16.60
2018-09-30T11:44:00.012Z,16.60
2018-09-30T11:46:28.327Z,16.60
2018-09-30T11:48:56.590Z,16.60
2018-09-30T11:51:24.914Z,16.60
2018-09-30T11:53:53.225Z,16.80
2018-09-30T11:56:21.592Z,16.90
2018-09-30T11:58:49.941Z,16.80
2018-09-30T12:01:18.478Z,16.80
2018-09-30T12:03:46.792Z,16.90
2018-09-30T12:06:15.115Z,16.90
2018-09-30T12:08:43.462Z,16.80
2018-09-30T12:11:11.971Z,16.80
2018-09-30T12:13:40.219Z,16.90
2018-09-30T12:16:08.439Z,17.00
2018-09-30T12:18:36.785Z,17.20
2018-09-30T12:21:05.050Z,17.20
2018-09-30T12:23:33.358Z,17.30
2018-09-30T12:26:01.644Z,17.30
2018-09-30T12:28:29.874Z,17.40
2018-09-30T12:30:58.208Z,17.50
2018-09-30T12:33:26.563Z,17.60
2018-09-30T12:35:54.864Z,17.50
2018-09-30T12:38:23.152Z,17.40
2018-09-30T12:40:51.424Z,17.40
2018-09-30T12:43:19.595Z,17.60
2018-09-30T12:45:47.763Z,17.80
2018-09-30T12:48:16.024Z,17.90
2018-09-30T12:50:44.386Z,17.90
2018-09-30T12:53:12.791Z,17.80
2018-09-30T12:55:41.019Z,18.00
2018-09-30T12:58:09.343Z,18.10
2018-09-30T13:00:37.489Z,18.20
2018-09-30T13:03:05.809Z,18.20
2018-09-30T13:05:34.239Z,18.10
2018-09-30T13:08:02.567Z,18.00
2018-09-30T13:10:30.782Z,18.00
2018-09-30T13:13:00.013Z,18.00
2018-09-30T13:15:29.111Z,18.00
2018-09-30T13:17:57.494Z,18.10
2018-09-30T13:20:25.858Z,18.30
2018-09-30T13:22:54.420Z,18.30
2018-09-30T13:25:22.721Z,18.30
2018-09-30T13:27:51.012Z,18.40
2018-09-30T13:30:19.308Z,18.40
2018-09-30T13:32:47.621Z,18.40
2018-09-30T13:35:15.872Z,18.50
2018-09-30T13:37:44.247Z,18.50
2018-09-30T13:40:12.621Z,18.50
2018-09-30T13:42:40.892Z,18.70
2018-09-30T13:45:09.263Z,18.80
2018-09-30T13:47:37.709Z,18.90
2018-09-30T13:50:05.962Z,19.00
2018-09-30T13:52:34.180Z,18.90
2018-09-30T13:55:02.508Z,19.00
2018-09-30T13:57:30.769Z,19.10
2018-09-30T13:59:59.031Z,19.10
2018-09-30T14:02:27.225Z,19.00
2018-09-30T14:04:55.472Z,18.80
2018-09-30T14:07:23.740Z,18.80
2018-09-30T14:09:52.028Z,18.70
2018-09-30T14:12:20.197Z,18.70
2018-09-30T14:14:48.443Z,18.80
2018-09-30T14:17:16.729Z,18.70
2018-09-30T14:19:45.103Z,18.70
2018-09-30T14:22:13.492Z,18.70
2018-09-30T14:24:41.800Z,18.80
2018-09-30T14:27:10.237Z,18.80
2018-09-30T14:29:38.408Z,18.80
2018-09-30T14:32:06.772Z,18.90
2018-09-30T14:34:35.174Z,19.00
2018-09-30T14:37:03.590Z,19.00
2018-09-30T14:39:31.891Z,19.10
2018-09-30T14:42:00.670Z,19.10
2018-09-30T14:44:28.959Z,19.10
2018-09-30T14:46:57.418Z,19.10
2018-09-30T14:49:26.015Z,19.20
2018-09-30T14:51:54.311Z,19.20
2018-09-30T14:54:22.768Z,19.20
2018-09-30T14:56:51.144Z,19.20
2018-09-30T14:59:19.471Z,19.20
2018-09-30T15:01:47.923Z,19.10
2018-09-30T15:04:16.271Z,19.10
2018-09-30T15:06:44.815Z,19.10
2018-09-30T15:09:13.189Z,19.10
2018-09-30T15:11:41.645Z,19.10
2018-09-30T15:14:10.003Z,19.10
2018-09-30T15:16:38.331Z,19.20
2018-09-30T15:19:06.772Z,19.10
2018-09-30T15:21:35.101Z,19.10
2018-09-30T15:24:03.598Z,19.10
2018-09-30T15:26:31.874Z,19.10
2018-09-30T15:29:00.286Z,19.00
2018-09-30T15:31:28.565Z,19.00
2018-09-30T15:33:56.981Z,19.00
2018-09-30T15:36:25.628Z,19.00
2018-09-30T15:38:53.935Z,19.00
2018-09-30T15:41:22.319Z,19.00
2018-09-30T15:43:50.709Z,19.10
2018-09-30T15:46:19.207Z,19.10
2018-09-30T15:48:47.636Z,19.10
2018-09-30T15:51:16.148Z,19.00
2018-09-30T15:53:44.529Z,19.00
2018-09-30T15:56:13.056Z,19.00
2018-09-30T15:58:41.422Z,19.00
2018-09-30T16:01:09.856Z,18.90
2018-09-30T16:03:39.671Z,18.90
2018-09-30T16:06:08.109Z,18.80
2018-09-30T16:08:36.527Z,18.80
2018-09-30T16:11:04.832Z,18.80
2018-09-30T16:13:33.241Z,18.70
2018-09-30T16:16:01.619Z,18.60
2018-09-30T16:18:30.121Z,18.50
2018-09-30T16:20:58.526Z,18.50
2018-09-30T16:23:26.868Z,18.40
2018-09-30T16:25:55.307Z,18.30
2018-09-30T16:28:23.749Z,18.30
2018-09-30T16:30:52.155Z,18.20
2018-09-30T16:33:21.599Z,18.10
2018-09-30T16:35:50.032Z,18.00
2018-09-30T16:38:18.538Z,17.90
2018-09-30T16:40:47.058Z,17.80
2018-09-30T16:43:15.844Z,17.70
2018-09-30T16:45:44.313Z,17.60
2018-09-30T16:48:12.776Z,17.50
2018-09-30T16:50:41.130Z,17.40
2018-09-30T16:53:09.348Z,17.30
2018-09-30T16:55:37.734Z,17.20
2018-09-30T16:58:05.995Z,17.00
2018-09-30T17:00:34.761Z,16.80
2018-09-30T17:03:03.127Z,16.60
2018-09-30T17:05:31.608Z,16.40
2018-09-30T17:07:59.908Z,16.20
2018-09-30T17:10:28.227Z,16.00
2018-09-30T17:12:56.504Z,15.80
2018-09-30T17:15:24.888Z,15.60
2018-09-30T17:17:53.392Z,15.50
2018-09-30T17:20:21.728Z,15.30
2018-09-30T17:22:50.078Z,15.20
2018-09-30T17:25:18.439Z,15.00
2018-09-30T17:27:46.778Z,14.90
2018-09-30T17:30:15.105Z,14.70
2018-09-30T17:32:44.132Z,14.60
2018-09-30T17:35:12.388Z,14.40
2018-09-30T17:37:40.602Z,14.30
2018-09-30T17:40:08.755Z,14.20
2018-09-30T17:42:36.913Z,14.10
2018-09-30T17:45:05.693Z,14.00
2018-09-30T17:47:33.879Z,13.80
2018-09-30T17:50:02.115Z,13.80
2018-09-30T17:52:30.335Z,13.70
2018-09-30T17:54:58.574Z,13.60
2018-09-30T17:57:26.897Z,13.50
2018-09-30T17:59:55.076Z,13.40
2018-09-30T18:02:23.296Z,13.30
2018-09-30T18:04:55.193Z,13.20
2018-09-30T18:07:23.491Z,13.10
2018-09-30T18:09:51.838Z,13.00
2018-09-30T18:12:26.915Z,13.00
2018-09-30T18:14:55.170Z,12.90
2018-09-30T18:17:23.363Z,12.80
2018-09-30T18:19:51.600Z,12.60
2018-09-30T18:22:19.848Z,12.50
2018-09-30T18:24:48.107Z,12.40
2018-09-30T18:27:16.344Z,12.30
2018-09-30T18:29:44.561Z,12.30
2018-09-30T18:32:12.753Z,12.20
2018-09-30T18:34:40.920Z,12.10
2018-09-30T18:37:09.404Z,12.10
2018-09-30T18:39:37.579Z,12.00
2018-09-30T18:42:05.740Z,11.90
2018-09-30T18:44:34.095Z,11.80
2018-09-30T18:47:04.132Z,11.70
2018-09-30T18:49:32.379Z,11.70
2018-09-30T18:52:00.979Z,11.60
2018-09-30T18:54:29.179Z,11.60
2018-09-30T18:56:57.391Z,11.50
2018-09-30T18:59:25.602Z,11.40
2018-09-30T19:01:53.804Z,11.40
2018-09-30T19:04:22.074Z,11.40
2018-09-30T19:06:50.347Z,11.40
2018-09-30T19:09:18.602Z,11.30
2018-09-30T19:11:46.881Z,11.30
2018-09-30T19:14:15.082Z,11.30
2018-09-30T19:16:43.271Z,11.40
2018-09-30T19:19:11.580Z,11.40
2018-09-30T19:21:39.707Z,11.40
2018-09-30T19:24:07.860Z,11.40
2018-09-30T19:26:36.235Z,11.40
2018-09-30T19:29:04.521Z,11.40
2018-09-30T19:31:32.774Z,11.30
2018-09-30T19:34:01.010Z,11.30
2018-09-30T19:36:29.255Z,11.20
2018-09-30T19:38:57.535Z,11.20
2018-09-30T19:41:25.752Z,11.10
2018-09-30T19:43:54.027Z,11.00
2018-09-30T19:46:22.268Z,10.90
2018-09-30T19:48:50.609Z,10.80
2018-09-30T19:51:18.791Z,10.70
2018-09-30T19:53:46.984Z,10.60
2018-09-30T19:56:15.168Z,10.60
2018-09-30T19:58:43.418Z,10.50
2018-09-30T20:01:11.620Z,10.40
2018-09-30T20:03:43.130Z,10.30
2018-09-30T20:06:11.445Z,10.30
2018-09-30T20:08:39.668Z,10.20
2018-09-30T20:11:07.951Z,10.20
2018-09-30T20:13:36.212Z,10.10
2018-09-30T20:16:04.388Z,10.10
2018-09-30T20:18:32.583Z,10.00
2018-09-30T20:21:00.760Z,9.90
2018-09-30T20:23:28.943Z,9.80
2018-09-30T20:25:57.190Z,9.80
2018-09-30T20:28:25.401Z,9.70
2018-09-30T20:30:53.628Z,9.70
2018-09-30T20:33:21.823Z,9.60
2018-09-30T20:35:50.000Z,9.50
2018-09-30T20:38:18.196Z,9.40
2018-09-30T20:40:46.384Z,9.40
2018-09-30T20:43:14.624Z,9.30
2018-09-30T20:45:42.826Z,9.30
2018-09-30T20:48:11.176Z,9.30
2018-09-30T20:50:40.635Z,9.30
2018-09-30T20:53:08.856Z,9.40
2018-09-30T20:55:37.018Z,9.40
2018-09-30T20:58:05.251Z,9.40
2018-09-30T21:00:33.602Z,9.50
2018-09-30T21:03:01.754Z,9.50
2018-09-30T21:06:39.574Z,9.60
2018-09-30T21:09:08.874Z,9.60
2018-09-30T21:11:43.711Z,9.70
2018-09-30T21:14:11.899Z,9.70
2018-09-30T21:16:40.169Z,9.70
2018-09-30T21:19:14.341Z,9.80
2018-09-30T21:21:42.577Z,9.70
2018-09-30T21:24:10.744Z,9.70
2018-09-30T21:26:38.906Z,9.70
2018-09-30T21:29:07.113Z,9.60
2018-09-30T21:31:35.318Z,9.60
2018-09-30T21:34:03.551Z,9.50
2018-09-30T21:36:31.742Z,9.40
2018-09-30T21:38:59.941Z,9.50
2018-09-30T21:41:33.961Z,9.50
2018-09-30T21:44:02.241Z,9.40
2018-09-30T21:46:30.435Z,9.30
2018-09-30T21:49:11.834Z,9.30
2018-09-30T21:51:40.069Z,9.20
2018-09-30T21:54:08.223Z,9.20
2018-09-30T21:56:36.483Z,9.10
2018-09-30T21:59:04.624Z,9.00
2018-09-30T22:01:32.901Z,9.00
2018-09-30T22:04:01.003Z,8.90
2018-09-30T22:06:29.190Z,8.90
2018-09-30T22:08:57.331Z,8.80
2018-09-30T22:11:25.470Z,8.80
2018-09-30T22:13:53.649Z,8.70
2018-09-30T22:16:21.815Z,8.60
2018-09-30T22:18:50.024Z,8.60
2018-09-30T22:21:18.178Z,8.50
2018-09-30T22:23:46.326Z,8.50
2018-09-30T22:26:14.522Z,8.50
2018-09-30T22:28:42.675Z,8.50
2018-09-30T22:31:10.844Z,8.60
2018-09-30T22:33:39.025Z,8.70
2018-09-30T22:36:07.176Z,8.80
2018-09-30T22:38:35.304Z,8.80
2018-09-30T22:41:03.452Z,8.70
2018-09-30T22:43:31.602Z,8.60
2018-09-30T22:45:59.790Z,8.50
2018-09-30T22:48:28.026Z,8.50
2018-09-30T22:50:56.204Z,8.40
2018-09-30T22:53:24.521Z,8.30
2018-09-30T22:55:52.591Z,8.20
2018-09-30T22:58:20.763Z,8.10
2018-09-30T23:00:48.936Z,8.00
2018-09-30T23:03:17.091Z,7.90
2018-09-30T23:05:45.245Z,7.90
2018-09-30T23:08:13.438Z,7.90
2018-09-30T23:10:41.603Z,7.80
2018-09-30T23:13:09.796Z,7.80
2018-09-30T23:15:37.995Z,7.70
2018-09-30T23:18:06.152Z,7.60
2018-09-30T23:20:34.533Z,7.50
2018-09-30T23:23:02.888Z,7.50
2018-09-30T23:25:31.155Z,7.50
2018-09-30T23:27:59.293Z,7.50
2018-09-30T23:30:27.487Z,7.50
2018-09-30T23:32:55.662Z,7.50
2018-09-30T23:35:23.849Z,7.40
2018-09-30T23:37:52.024Z,7.40
2018-09-30T23:40:20.191Z,7.40
2018-09-30T23:42:48.386Z,7.30
2018-09-30T23:45:16.552Z,7.20
2018-09-30T23:47:44.743Z,7.10
2018-09-30T23:50:12.999Z,7.00
2018-09-30T23:52:41.227Z,7.00
2018-09-30T23:55:09.475Z,6.90
2018-09-30T23:57:37.645Z,6.80
